Terminal Aerodrome Forecast
Issued by NWS

Home | Current Version | Previous Version | Text Only | Print | Product List | Glossary On
Versions: 1 2 3 4 5 6 7 8 9 10 11 12
000
FTUS45 KABQ 230500 RRA
TAFTCC
TAF
KTCC 230540Z 2306/2406 25015G23KT P6SM SCT250
     FM231500 28018G28KT P6SM SCT120
     FM231800 35023G33KT P6SM BKN050
     FM240130 34011KT P6SM FEW120=

USA.gov is the U.S. government's official web portal to all federal, state and local government web resources and services.